Duco, Kentucky
Current Conditions -  °F | °C
As of 3:53 PM on Wednesday 17 Dec 2014 (Local Time) from KJKL Reporting Station
Few Clouds Few Clouds  
Wind Chill:   Ceiling: Unl
Heat Index:   Visibility: 10mi
Dew Point: -2°   Wind: 3mph
Humidity: 68%   Direction: NA
Pressure: 30.17"   Gusts: NA
Location:  37.7261°N, 83.0786°W
Report Text: KJKL 172053Z AUTO VRB03KT 10SM FEW020 03/M02 A3017 RMK AO2 SLP222 T00331022 56008
Loading
Personal Weather Stations






























Interactive Weather Map New forecast layout! Learn more

10-Day Weather Forecast

Advertisements
Track Severe Weather on mobile